Time;durP1;ratioP1;P1;durP2;ratioP2;P2;SDS_P1;SDS_P2;PMS_P1;PMS_P2;Temp;Humidity;BMP_temperature;BMP_pressure;BME280_temperature;BME280_humidity;BME280_pressure;Samples;Min_cycle;Max_cycle;Signal;HPM_P1;HPM_P2
2021/12/28 00:00:16;;;;;;;22.20;7.53;;;;;;;8.65;81.53;97568.97;4986836;28;20120;-77
2021/12/28 00:02:45;;;;;;;31.42;7.75;;;;;;;8.66;81.16;97556.69;4987181;28;20340;-75
2021/12/28 00:05:11;;;;;;;23.80;5.75;;;;;;;8.68;81.37;97555.59;4985070;28;20038;-77
2021/12/28 00:07:37;;;;;;;22.58;6.45;;;;;;;8.70;81.00;97548.44;4973504;28;20033;-75
2021/12/28 00:10:05;;;;;;;30.15;8.50;;;;;;;8.74;80.69;97528.88;4990186;28;20083;-75
2021/12/28 00:12:33;;;;;;;26.00;6.63;;;;;;;8.78;80.66;97521.56;4989535;28;20083;-76
2021/12/28 00:15:47;;;;;;;35.20;10.02;;;;;;;8.80;80.73;97514.41;4989633;28;20039;-75
2021/12/28 00:18:01;;;;;;;33.25;8.02;;;;;;;8.85;80.67;97509.63;4988393;28;20046;-76
2021/12/28 00:20:33;;;;;;;23.25;7.00;;;;;;;8.88;80.43;97509.38;4990620;28;20034;-75
2021/12/28 00:23:00;;;;;;;29.05;9.48;;;;;;;8.88;80.19;97509.38;4986838;28;20066;-76
2021/12/28 00:25:26;;;;;;;27.60;6.75;;;;;;;8.92;80.52;97512.63;4986363;28;20114;-76
2021/12/28 00:27:52;;;;;;;24.95;6.40;;;;;;;8.94;80.31;97515.97;4987245;28;20053;-76
2021/12/28 00:30:18;;;;;;;26.90;7.03;;;;;;;8.96;80.24;97512.25;4986767;28;20038;-74
2021/12/28 00:32:46;;;;;;;30.48;7.80;;;;;;;8.96;80.28;97512.25;4986232;28;20034;-76
2021/12/28 00:35:12;;;;;;;31.70;7.05;;;;;;;8.97;80.39;97513.91;4985987;28;20379;-75
2021/12/28 00:37:37;;;;;;;28.48;6.47;;;;;;;8.97;80.43;97515.72;4968877;28;20054;-75
2021/12/28 00:40:04;;;;;;;23.75;6.72;;;;;;;8.96;80.04;97517.50;4985980;28;20038;-76
2021/12/28 00:42:29;;;;;;;27.63;7.78;;;;;;;8.95;79.98;97515.00;4987246;28;20061;-75
2021/12/28 00:44:55;;;;;;;26.23;7.88;;;;;;;8.95;80.63;97521.09;4986529;28;20042;-75
2021/12/28 00:47:20;;;;;;;36.58;8.70;;;;;;;8.99;80.30;97521.69;4989677;28;20133;-76
2021/12/28 00:49:46;;;;;;;24.20;7.40;;;;;;;8.99;80.30;97513.81;4990032;28;20046;-74
2021/12/28 00:52:11;;;;;;;27.25;7.40;;;;;;;9.01;80.76;97517.97;4973104;28;20057;-73
2021/12/28 00:54:36;;;;;;;35.42;7.93;;;;;;;9.02;79.82;97522.28;4989955;28;20034;-74
2021/12/28 00:57:02;;;;;;;27.33;7.15;;;;;;;9.02;79.92;97524.91;4990356;28;20053;-74
2021/12/28 00:59:28;;;;;;;33.25;9.98;;;;;;;9.03;80.58;97520.47;4990241;28;20038;-75
2021/12/28 01:01:54;;;;;;;22.27;6.85;;;;;;;9.03;79.92;97515.22;4972981;28;20121;-74
2021/12/28 01:04:20;;;;;;;26.42;7.03;;;;;;;9.03;79.79;97523.97;4991125;28;20169;-74
2021/12/28 01:06:45;;;;;;;33.53;6.35;;;;;;;9.05;80.19;97507.22;4992143;28;20106;-75
2021/12/28 01:09:11;;;;;;;25.65;8.95;;;;;;;9.06;79.89;97506.25;4992562;28;20117;-74
2021/12/28 01:11:36;;;;;;;26.25;7.90;;;;;;;9.06;80.48;97504.47;4992153;28;20034;-74
2021/12/28 01:14:02;;;;;;;30.10;7.72;;;;;;;9.09;79.64;97501.59;4992795;28;20034;-74
2021/12/28 01:16:28;;;;;;;37.28;7.25;;;;;;;9.11;80.23;97491.81;4991202;28;20038;-74
2021/12/28 01:18:53;;;;;;;23.95;8.77;;;;;;;9.15;79.58;97495.00;4992182;28;20044;-75
2021/12/28 01:21:19;;;;;;;27.15;7.85;;;;;;;9.18;80.08;97492.13;4973980;28;20169;-74
2021/12/28 01:23:44;;;;;;;26.35;7.18;;;;;;;9.20;79.97;97493.66;4991927;28;20517;-74
2021/12/28 01:26:10;;;;;;;20.75;6.45;;;;;;;9.25;79.54;97498.56;4991217;28;20045;-74
2021/12/28 01:28:35;;;;;;;29.05;6.55;;;;;;;9.29;79.87;97494.75;4974514;28;20037;-74
2021/12/28 01:31:01;;;;;;;33.63;8.07;;;;;;;9.32;79.50;97493.66;4974647;28;20045;-74
2021/12/28 01:33:26;;;;;;;24.95;9.30;;;;;;;9.35;79.97;97494.25;4992663;28;20453;-75
2021/12/28 01:35:51;;;;;;;22.50;6.55;;;;;;;9.37;79.86;97489.69;4974211;28;20477;-75
2021/12/28 01:38:17;;;;;;;25.02;6.30;;;;;;;9.37;80.00;97484.44;4976878;28;20279;-74
2021/12/28 01:40:43;;;;;;;17.30;5.85;;;;;;;9.36;80.40;97484.56;4995299;28;20379;-73
2021/12/28 01:43:17;;;;;;;21.17;5.75;;;;;;;9.39;80.15;97486.94;4995204;28;20042;-74
2021/12/28 01:46:02;;;;;;;22.55;6.43;;;;;;;9.40;80.41;97478.09;4991252;28;20550;-75
2021/12/28 01:48:40;;;;;;;27.38;8.23;;;;;;;9.42;80.15;97471.72;4991101;28;20038;-75
2021/12/28 01:51:11;;;;;;;23.85;6.70;;;;;;;9.44;79.84;97479.50;4991407;28;20041;-74
2021/12/28 01:53:37;;;;;;;33.08;7.25;;;;;;;9.47;80.18;97479.25;4991616;28;20092;-75
2021/12/28 01:56:10;;;;;;;22.20;6.35;;;;;;;9.50;80.16;97476.41;4991664;28;20042;-76
2021/12/28 01:58:36;;;;;;;24.65;5.88;;;;;;;9.52;79.83;97474.44;4990914;28;20065;-74
2021/12/28 02:01:04;;;;;;;24.20;5.97;;;;;;;9.53;79.41;97468.25;4959596;28;20050;-76
2021/12/28 02:03:31;;;;;;;25.48;5.93;;;;;;;9.54;79.38;97459.38;4991776;28;20046;-76
2021/12/28 02:05:57;;;;;;;24.70;7.22;;;;;;;9.58;79.05;97459.97;4994215;28;20045;-75
2021/12/28 02:08:22;;;;;;;30.42;7.28;;;;;;;9.61;79.72;97463.19;4994642;28;20030;-75
2021/12/28 02:10:50;;;;;;;18.30;5.45;;;;;;;9.61;79.16;97464.97;4993115;28;20475;-76
2021/12/28 02:13:16;;;;;;;17.95;4.80;;;;;;;9.61;79.22;97470.25;4990759;28;20037;-76
2021/12/28 02:15:42;;;;;;;22.55;5.93;;;;;;;9.61;79.01;97467.59;4990861;28;20394;-76
2021/12/28 02:18:10;;;;;;;21.55;5.50;;;;;;;9.64;78.88;97459.44;4991864;28;20045;-75
2021/12/28 02:20:37;;;;;;;21.55;4.97;;;;;;;9.64;78.95;97462.91;4991041;28;20494;-76
2021/12/28 02:23:03;;;;;;;16.60;5.00;;;;;;;9.63;78.64;97463.88;4990855;28;20446;-75
2021/12/28 02:25:31;;;;;;;17.02;5.82;;;;;;;9.63;78.39;97458.63;4997068;28;20030;-74
2021/12/28 02:27:57;;;;;;;20.52;4.60;;;;;;;9.66;78.51;97453.09;4975454;28;20406;-74
2021/12/28 02:30:22;;;;;;;15.00;4.63;;;;;;;9.65;78.11;97454.09;4992371;28;20035;-74
2021/12/28 02:32:50;;;;;;;10.07;3.83;;;;;;;9.65;78.04;97448.00;4991035;28;20045;-75
2021/12/28 02:35:19;;;;;;;13.27;3.70;;;;;;;9.67;78.21;97440.78;4990314;28;20058;-76
2021/12/28 02:37:45;;;;;;;16.45;5.43;;;;;;;9.68;77.48;97439.84;4990515;28;20035;-74
2021/12/28 02:40:13;;;;;;;15.88;2.97;;;;;;;9.68;77.51;97435.41;4990524;28;20121;-75
2021/12/28 02:42:39;;;;;;;7.30;3.13;;;;;;;9.67;77.95;97431.13;4990618;28;20129;-75
2021/12/28 02:45:10;;;;;;;13.52;3.80;;;;;;;9.67;77.15;97428.47;4989928;28;20130;-76
2021/12/28 02:47:41;;;;;;;10.48;2.85;;;;;;;9.70;77.46;97435.28;4990301;28;20035;-75
2021/12/28 02:50:11;;;;;;;11.07;3.38;;;;;;;9.70;77.25;97430.03;4989991;28;20080;-75
2021/12/28 02:52:37;;;;;;;9.00;4.25;;;;;;;9.71;77.12;97430.84;4990139;28;20042;-75
2021/12/28 02:55:06;;;;;;;14.65;4.03;;;;;;;9.68;77.51;97430.13;4989661;28;20045;-75
2021/12/28 02:57:31;;;;;;;11.07;2.85;;;;;;;9.66;77.48;97421.53;4989907;28;20557;-75
2021/12/28 02:59:57;;;;;;;8.45;2.75;;;;;;;9.67;77.96;97423.22;4990391;28;20054;-75
2021/12/28 03:02:22;;;;;;;9.60;2.75;;;;;;;9.70;77.92;97419.50;4990523;28;20034;-74
2021/12/28 03:04:47;;;;;;;11.05;2.88;;;;;;;9.68;77.77;97414.34;4990711;28;20045;-74
2021/12/28 03:07:13;;;;;;;11.38;3.00;;;;;;;9.71;77.63;97412.44;4991759;28;20041;-74
2021/12/28 03:09:39;;;;;;;8.88;2.85;;;;;;;9.74;78.38;97412.16;4991095;28;20065;-74
2021/12/28 03:12:05;;;;;;;15.88;5.15;;;;;;;9.72;77.62;97399.16;4992602;28;20034;-74
2021/12/28 03:14:31;;;;;;;11.85;2.78;;;;;;;9.73;77.99;97394.72;4992623;28;20613;-75
2021/12/28 03:16:56;;;;;;;12.93;3.08;;;;;;;9.76;77.61;97402.34;4990506;28;20058;-75
2021/12/28 03:19:21;;;;;;;10.25;2.35;;;;;;;9.73;77.88;97400.00;4980955;28;20045;-76
2021/12/28 03:21:47;;;;;;;13.02;3.60;;;;;;;9.73;77.45;97400.00;4989439;28;20049;-76
2021/12/28 03:24:13;;;;;;;9.38;2.33;;;;;;;9.76;77.18;97394.47;4990783;28;20085;-75
2021/12/28 03:26:38;;;;;;;7.18;2.30;;;;;;;9.76;76.96;97392.66;4989299;28;20049;-76
2021/12/28 03:29:05;;;;;;;6.63;2.22;;;;;;;9.78;76.39;97389.91;4989487;28;20045;-75
2021/12/28 03:31:31;;;;;;;5.97;2.67;;;;;;;9.80;76.17;97391.44;4989468;28;20101;-76
2021/12/28 03:33:57;;;;;;;12.18;2.67;;;;;;;9.78;76.66;97385.47;4990217;28;20031;-74
2021/12/28 03:36:25;;;;;;;8.07;3.58;;;;;;;9.79;76.26;97381.03;4989047;28;20505;-75
2021/12/28 03:38:51;;;;;;;7.75;2.83;;;;;;;9.79;76.74;97381.03;4988551;28;20137;-75
2021/12/28 03:41:20;;;;;;;8.18;2.83;;;;;;;9.78;76.38;97377.59;4988986;28;20471;-75
2021/12/28 03:43:48;;;;;;;6.43;2.80;;;;;;;9.77;76.50;97377.69;4990264;28;20073;-75
2021/12/28 03:46:14;;;;;;;6.15;1.90;;;;;;;9.78;76.58;97377.59;4988903;28;20041;-74
2021/12/28 03:48:40;;;;;;;7.13;2.38;;;;;;;9.77;76.90;97375.94;4990577;28;20046;-74
2021/12/28 03:51:06;;;;;;;4.25;2.10;;;;;;;9.79;76.60;97375.78;4989227;28;20042;-74
2021/12/28 03:53:33;;;;;;;3.92;1.95;;;;;;;9.79;76.25;97373.16;4989172;28;20081;-76
2021/12/28 03:55:58;;;;;;;10.10;2.42;;;;;;;9.79;76.60;97373.16;4989049;28;20042;-75
2021/12/28 03:58:24;;;;;;;6.43;1.95;;;;;;;9.79;76.98;97365.25;4988982;28;20038;-75
2021/12/28 04:00:50;;;;;;;5.82;1.90;;;;;;;9.78;76.40;97356.53;4971514;28;20034;-76
2021/12/28 04:03:15;;;;;;;4.25;1.70;;;;;;;9.74;76.80;97359.56;4988590;28;20490;-76
2021/12/28 04:05:44;;;;;;;15.75;2.30;;;;;;;9.72;77.39;97357.06;4987865;28;20405;-76
2021/12/28 04:08:10;;;;;;;4.10;1.73;;;;;;;9.71;77.43;97354.56;4989062;28;20117;-75
2021/12/28 04:10:51;;;;;;;4.45;1.17;;;;;;;9.74;77.09;97346.41;4989119;28;20116;-77
2021/12/28 04:13:18;;;;;;;7.00;1.90;;;;;;;9.73;76.62;97342.09;4989101;28;20042;-75
2021/12/28 04:15:44;;;;;;;6.05;2.38;;;;;;;9.72;77.41;97343.06;4988022;28;20042;-76
2021/12/28 04:18:10;;;;;;;4.68;2.05;;;;;;;9.72;77.44;97340.44;4988633;28;20510;-76
2021/12/28 04:20:35;;;;;;;5.47;1.80;;;;;;;9.71;77.46;97350.13;4990169;28;20030;-77
2021/12/28 04:23:01;;;;;;;3.88;2.28;;;;;;;9.69;77.54;97341.53;4992407;28;20034;-76
2021/12/28 04:25:26;;;;;;;3.53;1.48;;;;;;;9.68;78.06;97347.75;4992739;28;20045;-76
2021/12/28 04:27:51;;;;;;;3.05;1.27;;;;;;;9.66;78.19;97353.13;4992707;28;20569;-76
2021/12/28 04:30:17;;;;;;;3.00;1.20;;;;;;;9.64;78.13;97347.16;4992426;28;20031;-75
2021/12/28 04:32:43;;;;;;;3.28;1.45;;;;;;;9.62;77.37;97346.50;4992635;28;20034;-76
2021/12/28 04:35:09;;;;;;;1.85;1.10;;;;;;;9.62;78.10;97341.22;4991906;28;20050;-75
2021/12/28 04:37:35;;;;;;;2.13;1.20;;;;;;;9.61;77.68;97342.16;4992710;28;20371;-74
2021/12/28 04:40:01;;;;;;;1.75;1.00;;;;;;;9.62;77.80;97329.84;4992919;28;20045;-75
2021/12/28 04:42:28;;;;;;;1.85;1.25;;;;;;;9.63;77.98;97331.53;4992961;28;20165;-75
2021/12/28 04:44:54;;;;;;;3.15;1.55;;;;;;;9.58;78.01;97328.47;4992613;28;20039;-75
2021/12/28 04:47:19;;;;;;;2.28;1.45;;;;;;;9.58;78.16;97329.28;4993947;28;20053;-77
2021/12/28 04:49:46;;;;;;;3.25;1.10;;;;;;;9.58;78.16;97331.09;4992934;28;20398;-75
2021/12/28 04:52:12;;;;;;;2.00;1.08;;;;;;;9.57;78.27;97326.78;4993589;28;20085;-75
2021/12/28 04:54:37;;;;;;;2.42;1.30;;;;;;;9.56;78.00;97333.00;4992024;28;20473;-75
2021/12/28 04:57:05;;;;;;;2.65;1.20;;;;;;;9.49;78.05;97324.78;4992316;28;20041;-75
2021/12/28 04:59:30;;;;;;;3.03;1.17;;;;;;;9.52;78.01;97323.69;4992720;28;20035;-75
2021/12/28 05:01:56;;;;;;;2.55;1.33;;;;;;;9.51;77.94;97316.78;4992208;28;20049;-75
2021/12/28 05:04:21;;;;;;;1.60;1.00;;;;;;;9.50;78.26;97320.38;4974310;28;20151;-76
2021/12/28 05:06:46;;;;;;;3.38;1.17;;;;;;;9.46;77.92;97325.06;4991900;28;20037;-75
2021/12/28 05:09:15;;;;;;;0.80;0.70;;;;;;;9.36;78.03;97325.00;4992581;28;20035;-75
2021/12/28 05:11:41;;;;;;;1.95;1.05;;;;;;;9.35;78.27;97325.97;4974121;28;20041;-76
2021/12/28 05:14:08;;;;;;;1.45;1.15;;;;;;;9.35;78.07;97325.97;4992451;28;20117;-76
2021/12/28 05:16:34;;;;;;;2.45;1.10;;;;;;;9.37;78.56;97321.41;4992104;28;20034;-76
2021/12/28 05:19:01;;;;;;;0.80;0.80;;;;;;;9.35;78.21;97327.75;4974504;28;20055;-76
2021/12/28 05:21:28;;;;;;;1.05;0.93;;;;;;;9.34;78.15;97315.56;4992069;28;20484;-75
2021/12/28 05:23:53;;;;;;;1.20;0.95;;;;;;;9.32;78.13;97322.75;4993130;28;20096;-75
2021/12/28 05:26:19;;;;;;;0.80;0.80;;;;;;;9.33;78.78;97316.50;4993082;28;20041;-74
2021/12/28 05:28:44;;;;;;;1.95;1.15;;;;;;;9.31;78.60;97319.28;4995451;28;20034;-75
2021/12/28 05:31:10;;;;;;;2.22;0.80;;;;;;;9.31;78.21;97315.84;4993026;28;20045;-75
2021/12/28 05:33:35;;;;;;;0.77;0.77;;;;;;;9.31;78.83;97316.66;4996266;28;20057;-74
2021/12/28 05:36:01;;;;;;;0.90;0.90;;;;;;;9.32;78.24;97312.22;4998265;28;20038;-74
2021/12/28 05:38:26;;;;;;;1.60;0.90;;;;;;;9.32;78.63;97312.22;5000546;28;20070;-75
2021/12/28 05:40:51;;;;;;;0.95;0.90;;;;;;;9.31;78.60;97308.78;4998882;28;20046;-75
2021/12/28 05:43:17;;;;;;;0.90;0.80;;;;;;;9.30;78.53;97312.34;4998177;28;20038;-75
2021/12/28 05:45:43;;;;;;;0.93;0.88;;;;;;;9.30;78.91;97311.53;4997180;28;20454;-76
2021/12/28 05:48:09;;;;;;;2.03;1.00;;;;;;;9.32;78.61;97309.59;4995759;28;20125;-75
2021/12/28 05:50:34;;;;;;;1.77;1.13;;;;;;;9.34;78.37;97299.78;4994318;28;20483;-75
2021/12/28 05:53:00;;;;;;;2.97;0.98;;;;;;;9.31;78.57;97300.88;4994428;28;20405;-75
2021/12/28 05:55:26;;;;;;;2.00;1.20;;;;;;;9.33;78.40;97295.47;5000058;28;20100;-75
2021/12/28 05:57:51;;;;;;;1.40;1.10;;;;;;;9.32;78.39;97297.28;4980693;28;20038;-75
2021/12/28 06:00:18;;;;;;;2.08;1.10;;;;;;;9.33;78.10;97301.59;4995808;28;20502;-76
2021/12/28 06:02:45;;;;;;;1.98;1.02;;;;;;;9.32;78.92;97294.66;4996061;28;20034;-75
2021/12/28 06:05:10;;;;;;;1.70;1.30;;;;;;;9.36;78.12;97301.34;4995997;28;20042;-75
2021/12/28 06:07:36;;;;;;;1.80;0.88;;;;;;;9.37;78.23;97297.72;4992653;28;20094;-76
2021/12/28 06:10:02;;;;;;;0.70;0.70;;;;;;;9.39;78.10;97302.88;4990331;28;20046;-76
2021/12/28 06:12:28;;;;;;;1.30;0.98;;;;;;;9.40;78.28;97301.91;4990921;28;20045;-75
2021/12/28 06:14:53;;;;;;;0.82;0.77;;;;;;;9.40;78.12;97308.00;4990531;28;20442;-76
2021/12/28 06:17:19;;;;;;;2.95;2.25;;;;;;;9.37;78.11;97310.06;4990453;28;20038;-76
2021/12/28 06:19:45;;;;;;;1.85;1.00;;;;;;;9.35;78.46;97323.34;4990814;28;20038;-75
2021/12/28 06:22:10;;;;;;;1.73;1.05;;;;;;;9.34;78.35;97331.34;4990703;28;20035;-75
2021/12/28 06:24:35;;;;;;;2.28;1.15;;;;;;;9.35;78.21;97339.13;4990377;28;20038;-75
2021/12/28 06:27:01;;;;;;;0.80;0.80;;;;;;;9.35;78.52;97327.75;4973097;28;20034;-74
2021/12/28 06:29:26;;;;;;;1.02;0.93;;;;;;;9.34;78.78;97324.28;4990734;28;20130;-74
2021/12/28 06:31:52;;;;;;;1.23;1.10;;;;;;;9.33;79.03;97325.25;4990400;28;20487;-77
2021/12/28 06:34:17;;;;;;;0.85;0.85;;;;;;;9.34;78.47;97320.84;4990354;28;20118;-75
2021/12/28 06:36:43;;;;;;;1.23;1.02;;;;;;;9.33;78.32;97313.88;4972776;28;20054;-74
2021/12/28 06:39:09;;;;;;;1.08;0.98;;;;;;;9.31;78.80;97305.31;4989729;28;20077;-74
2021/12/28 06:41:35;;;;;;;2.45;0.98;;;;;;;9.26;78.80;97305.69;4990522;28;20038;-74
2021/12/28 06:44:00;;;;;;;1.45;1.00;;;;;;;9.22;78.22;97302.47;4972837;28;20046;-74
2021/12/28 06:46:25;;;;;;;0.90;0.80;;;;;;;9.17;78.85;97299.41;4989624;28;20100;-75
2021/12/28 06:48:51;;;;;;;1.38;1.10;;;;;;;9.09;79.09;97291.34;4990267;28;20117;-74
2021/12/28 06:51:16;;;;;;;2.33;1.42;;;;;;;9.06;78.66;97299.47;4990217;28;20069;-75
2021/12/28 06:53:42;;;;;;;1.27;1.13;;;;;;;9.05;79.03;97297.78;4972994;28;20042;-75
2021/12/28 06:56:08;;;;;;;2.30;1.38;;;;;;;9.01;79.38;97299.88;4990147;28;20398;-75
2021/12/28 06:58:34;;;;;;;1.27;1.00;;;;;;;8.97;79.48;97300.25;4990416;28;20033;-76
2021/12/28 07:01:00;;;;;;;0.80;0.80;;;;;;;8.91;79.61;97308.59;4989881;28;20438;-76
2021/12/28 07:03:25;;;;;;;3.38;1.05;;;;;;;8.87;79.85;97307.22;4990135;28;20129;-75
2021/12/28 07:05:50;;;;;;;2.15;1.00;;;;;;;8.85;79.68;97323.09;4989371;28;20121;-76
2021/12/28 07:08:16;;;;;;;2.15;1.38;;;;;;;8.84;79.85;97326.69;4989912;28;20057;-76
2021/12/28 07:10:43;;;;;;;0.80;0.80;;;;;;;8.84;79.65;97320.59;4990051;28;20073;-76
2021/12/28 07:13:08;;;;;;;2.10;1.05;;;;;;;8.82;79.80;97320.72;4989956;28;20109;-76
2021/12/28 07:15:34;;;;;;;0.90;0.85;;;;;;;8.81;80.13;97313.78;4989894;28;20118;-75
2021/12/28 07:17:59;;;;;;;0.82;0.82;;;;;;;8.78;79.85;97322.75;4989645;28;20073;-75
2021/12/28 07:20:25;;;;;;;1.08;1.00;;;;;;;8.75;79.93;97323.00;4989938;28;20033;-76
2021/12/28 07:22:51;;;;;;;1.23;0.90;;;;;;;8.73;80.42;97324.91;4995512;28;20035;-76
2021/12/28 07:25:16;;;;;;;1.23;1.15;;;;;;;8.73;79.96;97334.59;4996606;28;20069;-75
2021/12/28 07:27:42;;;;;;;0.70;0.70;;;;;;;8.72;80.25;97338.19;4997995;28;20030;-75
2021/12/28 07:30:10;;;;;;;2.05;0.80;;;;;;;8.70;80.60;97342.72;4997885;28;20038;-75
2021/12/28 07:32:37;;;;;;;0.88;0.88;;;;;;;8.74;80.37;97345.00;5001715;28;20059;-74
2021/12/28 07:35:03;;;;;;;2.75;1.38;;;;;;;8.84;81.24;97342.47;5000000;28;20037;-73
2021/12/28 07:37:28;;;;;;;1.30;0.93;;;;;;;8.88;80.84;97340.41;4991835;28;20042;-75
2021/12/28 07:39:54;;;;;;;1.85;1.40;;;;;;;8.93;80.72;97331.16;4989004;28;20104;-74
2021/12/28 07:42:20;;;;;;;1.13;0.90;;;;;;;8.99;79.87;97324.59;4953248;28;20039;-77
2021/12/28 07:44:47;;;;;;;1.02;0.90;;;;;;;9.04;80.41;97325.06;4969733;28;20135;-75
2021/12/28 07:47:12;;;;;;;1.75;1.10;;;;;;;9.07;79.34;97330.03;4969815;28;20035;-76
2021/12/28 07:49:38;;;;;;;1.90;1.20;;;;;;;9.13;80.75;97326.06;4970343;28;20043;-76
2021/12/28 07:52:04;;;;;;;1.35;1.17;;;;;;;9.18;79.53;97337.91;4982936;28;20041;-76
2021/12/28 07:54:29;;;;;;;1.17;1.00;;;;;;;9.16;79.68;97331.91;4971167;28;20057;-76
2021/12/28 07:56:54;;;;;;;1.25;0.85;;;;;;;9.16;79.57;97341.59;4988568;28;20042;-76
2021/12/28 07:59:20;;;;;;;2.25;1.10;;;;;;;9.18;79.36;97351.03;4990139;28;20038;-76
2021/12/28 08:01:45;;;;;;;1.23;1.00;;;;;;;9.22;79.96;97347.16;4989237;28;20034;-77
2021/12/28 08:04:11;;;;;;;1.98;1.30;;;;;;;9.24;79.24;97349.69;4971961;28;20035;-76
2021/12/28 08:06:36;;;;;;;2.40;1.50;;;;;;;9.29;79.44;97349.31;4989012;28;20109;-77
2021/12/28 08:09:02;;;;;;;1.90;1.30;;;;;;;9.31;79.20;97356.09;4989238;28;20034;-76
2021/12/28 08:11:27;;;;;;;1.20;0.90;;;;;;;9.33;79.96;97350.69;4988938;28;20030;-76
2021/12/28 08:13:53;;;;;;;1.95;1.30;;;;;;;9.34;80.03;97360.28;4988540;28;20461;-76
2021/12/28 08:16:19;;;;;;;2.75;1.50;;;;;;;9.36;79.76;97350.47;4990316;28;20042;-75
2021/12/28 08:18:44;;;;;;;1.55;1.20;;;;;;;9.37;80.09;97352.94;4992263;28;20447;-76
2021/12/28 08:21:09;;;;;;;1.67;1.05;;;;;;;9.39;80.11;97350.19;4992121;28;20092;-76
2021/12/28 08:23:35;;;;;;;1.52;1.00;;;;;;;9.41;80.01;97354.38;4992074;28;20161;-76
2021/12/28 08:26:00;;;;;;;1.52;1.00;;;;;;;9.42;79.69;97356.03;4991194;28;20165;-76
2021/12/28 08:28:26;;;;;;;2.92;1.15;;;;;;;9.49;80.14;97363.41;4988715;28;20042;-76
2021/12/28 08:30:51;;;;;;;1.75;1.27;;;;;;;9.55;80.73;97355.84;4989046;28;20038;-77
2021/12/28 08:33:16;;;;;;;1.50;1.17;;;;;;;9.58;80.17;97354.75;4988396;28;20043;-74
2021/12/28 08:35:42;;;;;;;3.88;1.67;;;;;;;9.61;80.14;97359.75;4988361;28;20034;-76
2021/12/28 08:38:11;;;;;;;1.20;1.10;;;;;;;9.67;79.78;97357.44;4989010;28;20482;-75
2021/12/28 08:40:39;;;;;;;1.10;1.00;;;;;;;9.68;79.37;97358.28;4971403;28;20514;-75
2021/12/28 08:43:06;;;;;;;0.85;0.80;;;;;;;9.72;80.11;97345.69;4988726;28;20058;-75
2021/12/28 08:45:31;;;;;;;1.00;0.90;;;;;;;9.69;80.58;97344.16;4988002;28;20045;-76
2021/12/28 08:47:57;;;;;;;1.85;1.30;;;;;;;9.70;80.45;97337.94;4988954;28;20034;-74
2021/12/28 08:50:22;;;;;;;1.23;1.10;;;;;;;9.74;79.95;97341.13;4988501;28;20042;-76
2021/12/28 08:52:49;;;;;;;1.15;1.00;;;;;;;9.75;80.31;97333.13;4988684;28;20129;-76
2021/12/28 08:55:16;;;;;;;2.28;1.40;;;;;;;9.78;80.27;97345.19;4987784;28;20109;-76
2021/12/28 08:57:42;;;;;;;1.10;1.00;;;;;;;9.81;79.84;97332.59;4988507;28;20038;-76
2021/12/28 09:00:16;;;;;;;1.05;0.95;;;;;;;9.85;79.40;97341.06;4988688;28;20030;-76
2021/12/28 09:02:41;;;;;;;1.08;0.98;;;;;;;9.86;79.75;97343.53;4988384;28;20030;-76
2021/12/28 09:05:07;;;;;;;0.80;0.80;;;;;;;9.95;79.00;97352.47;4988500;28;20050;-74
2021/12/28 09:07:33;;;;;;;1.05;0.95;;;;;;;9.91;79.00;97351.06;4991594;28;20112;-74
2021/12/28 09:09:59;;;;;;;1.10;1.00;;;;;;;9.91;79.93;97355.50;4993396;28;20438;-75
2021/12/28 09:12:25;;;;;;;1.23;1.10;;;;;;;9.90;80.04;97352.03;4994955;28;20030;-75
2021/12/28 09:14:51;;;;;;;1.23;1.00;;;;;;;9.87;80.25;97345.22;5000890;28;20085;-75
2021/12/28 09:17:16;;;;;;;0.82;0.82;;;;;;;9.92;79.94;97347.47;5001553;28;20030;-75
2021/12/28 09:19:41;;;;;;;1.42;1.00;;;;;;;9.94;80.61;97348.16;4993920;28;20062;-75
2021/12/28 09:22:07;;;;;;;11.95;4.45;;;;;;;9.94;80.96;97353.41;4998875;28;20039;-76
2021/12/28 09:24:32;;;;;;;3.00;1.23;;;;;;;9.93;81.56;97362.28;4997133;28;20030;-75
2021/12/28 09:26:58;;;;;;;1.20;1.05;;;;;;;9.91;81.68;97348.41;4997599;28;20065;-74
2021/12/28 09:29:29;;;;;;;1.25;1.02;;;;;;;9.83;82.37;97356.97;4998022;28;20026;-74
2021/12/28 09:31:55;;;;;;;3.72;1.45;;;;;;;9.81;82.15;97360.69;4996780;28;20030;-76
2021/12/28 09:34:21;;;;;;;0.80;0.80;;;;;;;9.82;82.21;97365.84;4993268;28;20026;-75
2021/12/28 09:36:46;;;;;;;1.95;1.20;;;;;;;9.80;83.13;97362.50;4995144;28;20406;-76
2021/12/28 09:39:11;;;;;;;0.80;0.80;;;;;;;9.81;82.62;97355.44;4995771;28;20118;-73
2021/12/28 09:41:37;;;;;;;0.88;0.82;;;;;;;9.83;82.38;97345.63;4997734;28;20042;-76
2021/12/28 09:44:03;;;;;;;1.10;1.02;;;;;;;9.87;82.37;97342.59;5006741;28;20042;-74
2021/12/28 09:46:28;;;;;;;0.80;0.80;;;;;;;9.92;82.22;97338.72;5001611;28;20094;-74
2021/12/28 09:48:53;;;;;;;2.67;1.85;;;;;;;9.97;81.98;97336.53;4996151;28;20165;-76
2021/12/28 09:51:19;;;;;;;1.20;0.98;;;;;;;10.05;81.76;97337.53;4991596;28;20038;-75
2021/12/28 09:53:44;;;;;;;1.05;0.95;;;;;;;10.08;81.71;97339.06;4973896;28;20046;-75
2021/12/28 09:56:10;;;;;;;1.13;0.93;;;;;;;10.09;81.93;97327.56;4991068;28;20049;-73
2021/12/28 09:58:37;;;;;;;1.73;1.20;;;;;;;10.19;81.32;97324.97;4991446;28;20060;-74
2021/12/28 10:01:05;;;;;;;2.85;0.90;;;;;;;10.21;81.54;97325.66;4991107;28;20034;-76
2021/12/28 10:03:30;;;;;;;2.17;0.85;;;;;;;10.27;82.10;97327.78;4990773;28;20038;-73
2021/12/28 10:05:56;;;;;;;2.28;1.15;;;;;;;10.25;82.50;97317.38;4990673;28;20031;-75
2021/12/28 10:08:25;;;;;;;1.48;0.98;;;;;;;10.24;82.99;97313.09;4991266;28;20040;-73
2021/12/28 10:10:55;;;;;;;3.35;1.08;;;;;;;10.34;82.63;97305.25;4991271;28;20576;-76
2021/12/28 10:13:24;;;;;;;0.90;0.90;;;;;;;10.47;82.49;97305.81;4991128;28;20034;-76
2021/12/28 10:15:54;;;;;;;1.13;1.00;;;;;;;10.49;81.90;97309.16;4990407;28;20058;-75
2021/12/28 10:18:19;;;;;;;1.60;1.10;;;;;;;10.46;81.65;97306.78;4990361;28;20037;-75
2021/12/28 10:20:57;;;;;;;1.10;0.98;;;;;;;10.49;82.13;97290.72;4990409;28;20398;-76
2021/12/28 10:23:27;;;;;;;1.60;1.10;;;;;;;10.50;82.26;97284.47;4990717;28;20438;-76
2021/12/28 10:25:56;;;;;;;0.95;0.90;;;;;;;10.49;82.26;97281.97;4989776;28;20042;-75
2021/12/28 10:28:34;;;;;;;1.63;1.00;;;;;;;10.51;82.21;97277.41;4990650;28;20057;-75
2021/12/28 10:31:04;;;;;;;0.77;0.77;;;;;;;10.52;81.67;97281.69;4973394;28;20053;-76
2021/12/28 10:33:33;;;;;;;1.02;0.90;;;;;;;10.55;81.51;97268.25;4990847;28;20038;-76
2021/12/28 10:36:02;;;;;;;0.90;0.90;;;;;;;10.61;81.35;97266.84;4990373;28;20411;-75
2021/12/28 10:38:33;;;;;;;0.82;0.82;;;;;;;10.69;80.67;97248.56;4990760;28;20034;-75
2021/12/28 10:41:04;;;;;;;1.30;0.95;;;;;;;10.73;79.82;97250.81;4990707;28;20050;-74
2021/12/28 10:43:33;;;;;;;2.80;1.48;;;;;;;10.79;79.18;97246.78;4990562;28;20041;-76
2021/12/28 10:46:02;;;;;;;1.00;0.90;;;;;;;10.91;78.77;97244.81;4989774;28;20104;-75
2021/12/28 10:48:38;;;;;;;0.90;0.90;;;;;;;10.98;78.25;97221.34;4990778;28;20113;-75
2021/12/28 10:51:12;;;;;;;1.33;1.13;;;;;;;11.06;78.47;97227.59;4973308;28;20034;-76
2021/12/28 10:56:52;;;;;;;1.52;1.20;;;;;;;10.90;79.57;97237.88;4989278;28;20121;-76
2021/12/28 10:59:27;;;;;;;3.28;1.10;;;;;;;10.84;80.68;97244.53;4990023;28;20491;-76
2021/12/28 11:01:54;;;;;;;1.35;1.20;;;;;;;10.79;81.05;97241.50;4990165;28;20498;-75
2021/12/28 11:04:19;;;;;;;1.33;1.08;;;;;;;10.80;80.88;97237.88;4990034;28;20503;-76
2021/12/28 11:06:48;;;;;;;1.95;1.35;;;;;;;10.73;81.13;97236.75;4990316;28;20123;-76
2021/12/28 11:09:17;;;;;;;1.40;1.00;;;;;;;10.68;81.09;97245.13;4990200;28;20053;-75
2021/12/28 11:11:43;;;;;;;6.10;3.42;;;;;;;10.73;82.57;97234.13;4989888;28;20495;-75
2021/12/28 11:14:13;;;;;;;3.10;1.55;;;;;;;10.69;82.47;97246.78;4990764;28;20454;-75
2021/12/28 11:16:39;;;;;;;2.72;1.25;;;;;;;10.57;83.36;97226.81;4989477;28;20034;-75
2021/12/28 11:19:09;;;;;;;3.50;1.00;;;;;;;10.56;83.71;97225.16;4989267;28;20039;-75
2021/12/28 11:21:41;;;;;;;1.55;1.23;;;;;;;10.47;84.50;97220.69;4989981;28;20038;-75
2021/12/28 11:24:10;;;;;;;1.20;0.90;;;;;;;10.40;84.81;97209.88;4989884;28;20034;-76
2021/12/28 11:26:44;;;;;;;0.90;0.90;;;;;;;10.36;84.89;97199.75;4989580;28;20042;-76
2021/12/28 11:29:16;;;;;;;2.40;1.25;;;;;;;10.36;84.88;97203.25;4989481;28;20518;-74
2021/12/28 11:31:42;;;;;;;2.85;1.33;;;;;;;10.36;85.04;97203.25;4989338;28;20130;-74
2021/12/28 11:34:14;;;;;;;1.20;1.08;;;;;;;10.30;85.46;97209.88;4990507;28;20034;-76
2021/12/28 11:36:46;;;;;;;3.10;1.10;;;;;;;10.28;85.79;97211.81;4989273;28;20050;-76
2021/12/28 11:39:17;;;;;;;1.45;1.35;;;;;;;10.31;85.95;97203.66;4986387;28;20040;-74